createdAt,value
2024-05-09T00:00:53.268Z,102203.75
2024-05-09T00:05:57.375Z,102194.63
2024-05-09T00:10:59.392Z,102188.44
2024-05-09T00:16:01.235Z,102193.00
2024-05-09T00:26:25.622Z,102186.56
2024-05-09T00:31:31.940Z,102180.25
2024-05-09T00:36:33.714Z,102187.72
2024-05-09T00:41:35.547Z,102177.63
2024-05-09T00:46:37.437Z,102178.97
2024-05-09T00:51:42.327Z,102180.31
2024-05-09T00:56:44.551Z,102187.56
2024-05-09T01:01:46.787Z,102181.41
2024-05-09T01:06:48.559Z,102190.28
2024-05-09T01:11:50.528Z,102184.59
2024-05-09T01:16:52.473Z,102182.31
2024-05-09T01:21:54.356Z,102177.69
2024-05-09T01:26:56.146Z,102180.84
2024-05-09T01:32:00.795Z,102179.38
2024-05-09T01:37:02.654Z,102170.03
2024-05-09T01:42:04.752Z,102169.56
2024-05-09T01:47:06.681Z,102174.09
2024-05-09T01:52:11.217Z,102157.13
2024-05-09T01:57:16.263Z,102163.63
2024-05-09T02:02:19.258Z,102170.66
2024-05-09T02:07:27.479Z,102163.84
2024-05-09T02:12:29.436Z,102167.22
2024-05-09T02:17:31.657Z,102168.69
2024-05-09T02:22:36.814Z,102164.06
2024-05-09T02:32:54.510Z,102166.41
2024-05-09T02:37:56.480Z,102159.94
2024-05-09T02:43:04.305Z,102162.09
2024-05-09T02:48:07.168Z,102164.28
2024-05-09T02:53:10.067Z,102163.44
2024-05-09T02:58:14.437Z,102158.28
2024-05-09T03:03:17.667Z,102158.97
2024-05-09T03:08:19.723Z,102154.97
2024-05-09T03:13:21.625Z,102158.66
2024-05-09T03:18:27.656Z,102166.63
2024-05-09T03:29:00.798Z,102161.59
2024-05-09T03:34:05.125Z,102165.25
2024-05-09T03:39:12.327Z,102160.78
2024-05-09T03:44:15.442Z,102162.63
2024-05-09T03:49:20.248Z,102162.09
2024-05-09T03:54:22.114Z,102172.06
2024-05-09T03:59:25.221Z,102162.59
2024-05-09T04:04:27.262Z,102161.94
2024-05-09T04:09:29.064Z,102168.25
2024-05-09T04:14:32.389Z,102162.94
2024-05-09T04:19:34.694Z,102163.59
2024-05-09T04:24:39.362Z,102166.94
2024-05-09T04:29:41.779Z,102166.44
2024-05-09T04:34:43.834Z,102173.41
2024-05-09T04:39:56.035Z,102168.25
2024-05-09T04:44:58.913Z,102171.75
2024-05-09T04:50:01.696Z,102175.47
2024-05-09T04:55:03.799Z,102175.63
2024-05-09T05:00:14.600Z,102170.75
2024-05-09T05:05:20.201Z,102171.59
2024-05-09T05:10:29.521Z,102179.19
2024-05-09T05:15:37.313Z,102180.69
2024-05-09T05:20:49.869Z,102186.13
2024-05-09T05:25:55.178Z,102181.53
2024-05-09T05:31:05.530Z,102193.00
2024-05-09T05:36:23.863Z,102190.13
2024-05-09T05:41:42.357Z,102188.06
2024-05-09T05:46:50.245Z,102197.66
2024-05-09T05:52:08.183Z,102204.78
2024-05-09T05:57:23.546Z,102205.91
2024-05-09T06:02:25.290Z,102213.09
2024-05-09T06:07:27.160Z,102212.09
2024-05-09T06:12:28.919Z,102214.47
2024-05-09T06:17:33.498Z,102211.34
2024-05-09T06:22:37.557Z,102209.19
2024-05-09T06:27:40.049Z,102210.31
2024-05-09T06:32:45.032Z,102202.84
2024-05-09T06:37:49.799Z,102206.47
2024-05-09T06:42:51.455Z,102211.44
2024-05-09T06:47:53.305Z,102219.00
2024-05-09T06:52:55.071Z,102215.34
2024-05-09T06:57:56.745Z,102217.78
2024-05-09T07:03:00.123Z,102222.56
2024-05-09T07:08:06.747Z,102224.69
2024-05-09T07:13:12.641Z,102224.28
2024-05-09T07:18:17.203Z,102228.81
2024-05-09T07:23:20.571Z,102233.84
2024-05-09T07:28:22.236Z,102219.97
2024-05-09T07:33:24.690Z,102224.59
2024-05-09T07:38:27.107Z,102231.16
2024-05-09T07:43:28.704Z,102239.88
2024-05-09T07:50:01.397Z,102232.09
2024-05-09T07:53:54.765Z,102218.44
2024-05-09T07:58:58.657Z,102222.25
2024-05-09T08:04:00.438Z,102227.03
2024-05-09T08:09:07.687Z,102219.94
2024-05-09T08:14:12.244Z,102230.59
2024-05-09T08:19:14.055Z,102230.84
2024-05-09T08:24:15.828Z,102219.00
2024-05-09T08:29:17.502Z,102219.41
2024-05-09T08:34:19.123Z,102208.63
2024-05-09T08:39:20.863Z,102211.25
2024-05-09T08:44:23.381Z,102214.66
2024-05-09T08:49:26.153Z,102215.63
2024-05-09T08:54:31.995Z,102206.53
2024-05-09T08:59:44.655Z,102203.91
2024-05-09T09:05:08.014Z,102210.81
2024-05-09T09:10:21.087Z,102203.75
2024-05-09T09:15:33.737Z,102200.91
2024-05-09T09:20:57.926Z,102196.59
2024-05-09T09:26:03.381Z,102202.97
2024-05-09T09:31:05.372Z,102195.16
2024-05-09T09:36:11.604Z,102197.81
2024-05-09T09:41:18.882Z,102189.72
2024-05-09T09:46:21.336Z,102190.84
2024-05-09T09:51:33.658Z,102186.41
2024-05-09T09:56:42.633Z,102177.41
2024-05-09T10:01:48.961Z,102179.38
2024-05-09T10:12:15.135Z,102161.88
2024-05-09T10:17:17.362Z,102164.69
2024-05-09T10:22:28.054Z,102159.22
2024-05-09T10:27:33.611Z,102150.28
2024-05-09T10:32:45.518Z,102148.25
2024-05-09T10:37:48.255Z,102144.56
2024-05-09T10:42:50.108Z,102142.84
2024-05-09T10:48:13.538Z,102140.06
2024-05-09T10:53:18.044Z,102144.88
2024-05-09T10:58:28.565Z,102123.59
2024-05-09T11:03:30.727Z,102122.25
2024-05-09T11:08:33.986Z,102124.19
2024-05-09T11:13:38.183Z,102116.06
2024-05-09T11:18:40.371Z,102102.63
2024-05-09T11:23:44.553Z,102098.31
2024-05-09T11:28:46.300Z,102096.78
2024-05-09T11:33:48.269Z,102098.81
2024-05-09T11:44:11.166Z,102081.91
2024-05-09T11:49:20.260Z,102065.63
2024-05-09T11:54:22.739Z,102056.16
2024-05-09T11:59:29.282Z,102057.22
2024-05-09T12:04:32.592Z,102051.84
2024-05-09T12:09:43.401Z,102051.66
2024-05-09T12:14:45.175Z,102048.44
2024-05-09T12:19:51.314Z,102036.00
2024-05-09T12:24:54.644Z,102034.78
2024-05-09T12:29:58.343Z,102020.06
2024-05-09T12:35:00.833Z,102020.63
2024-05-09T12:40:03.730Z,102007.84
2024-05-09T12:45:08.962Z,102004.63
2024-05-09T12:50:21.915Z,101997.75
2024-05-09T12:55:33.792Z,101999.50
2024-05-09T13:00:43.329Z,101995.38
2024-05-09T13:05:54.626Z,101985.50
2024-05-09T13:10:59.215Z,101982.72
2024-05-09T13:16:01.172Z,101975.97
2024-05-09T13:21:03.260Z,101977.81
2024-05-09T13:26:05.042Z,101973.81
2024-05-09T13:31:07.030Z,101977.03
2024-05-09T13:36:08.674Z,101962.19
2024-05-09T13:41:10.267Z,101962.88
2024-05-09T13:46:12.106Z,101950.69
2024-05-09T13:51:13.884Z,101946.50
2024-05-09T13:56:15.476Z,101942.59
2024-05-09T14:01:17.239Z,101936.09
2024-05-09T14:06:19.287Z,101931.19
2024-05-09T14:11:22.662Z,101921.34
2024-05-09T14:16:24.510Z,101911.63
2024-05-09T14:21:26.235Z,101907.25
2024-05-09T14:26:28.339Z,101891.44
2024-05-09T14:31:30.214Z,101891.75
2024-05-09T14:36:33.597Z,101882.91
2024-05-09T14:41:38.159Z,101879.31
2024-05-09T14:46:42.332Z,101869.75
2024-05-09T14:51:47.807Z,101872.00
2024-05-09T14:56:53.893Z,101868.38
2024-05-09T15:01:55.614Z,101880.28
2024-05-09T15:06:59.649Z,101866.56
2024-05-09T15:12:01.586Z,101864.56
2024-05-09T15:17:03.318Z,101851.06
2024-05-09T15:22:04.916Z,101845.31
2024-05-09T15:27:06.713Z,101847.63
2024-05-09T15:32:08.620Z,101839.31
2024-05-09T15:37:10.397Z,101836.44
2024-05-09T15:42:12.010Z,101828.34
2024-05-09T15:47:13.694Z,101824.16
2024-05-09T15:52:17.421Z,101823.44
2024-05-09T15:57:19.342Z,101814.63
2024-05-09T16:02:21.362Z,101815.13
2024-05-09T16:07:25.438Z,101812.41
2024-05-09T16:12:27.111Z,101812.91
2024-05-09T16:17:28.941Z,101807.78
2024-05-09T16:22:30.737Z,101800.00
2024-05-09T16:27:32.565Z,101811.66
2024-05-09T16:32:36.226Z,101796.00
2024-05-09T16:37:37.827Z,101799.75
2024-05-09T16:42:39.597Z,101794.81
2024-05-09T16:47:41.440Z,101785.56
2024-05-09T16:52:43.250Z,101787.28
2024-05-09T16:57:45.069Z,101791.16
2024-05-09T17:02:46.709Z,101793.06
2024-05-09T17:13:42.777Z,101785.16
2024-05-09T17:18:45.352Z,101785.78
2024-05-09T17:23:47.399Z,101788.63
2024-05-09T17:28:49.408Z,101785.03
2024-05-09T17:33:51.393Z,101789.94
2024-05-09T17:38:53.477Z,101780.16
2024-05-09T17:43:55.244Z,101783.63
2024-05-09T17:48:59.583Z,101781.13
2024-05-09T17:54:02.647Z,101778.63
2024-05-09T17:59:11.546Z,101788.06
2024-05-09T18:04:13.524Z,101780.09
2024-05-09T18:09:15.187Z,101776.69
2024-05-09T18:14:19.647Z,101782.72
2024-05-09T18:19:21.782Z,101782.94
2024-05-09T18:24:23.581Z,101777.88
2024-05-09T18:29:26.249Z,101780.47
2024-05-09T18:34:31.114Z,101780.63
2024-05-09T18:39:33.171Z,101784.69
2024-05-09T18:44:35.004Z,101789.09
2024-05-09T18:49:36.911Z,101797.84
2024-05-09T18:54:39.508Z,101791.44
2024-05-09T18:59:43.519Z,101795.06
2024-05-09T19:04:45.330Z,101801.19
2024-05-09T19:09:47.482Z,101807.22
2024-05-09T19:14:49.124Z,101811.16
2024-05-09T19:19:50.887Z,101817.66
2024-05-09T19:24:52.724Z,101827.41
2024-05-09T19:29:57.213Z,101818.88
2024-05-09T19:34:59.326Z,101820.72
2024-05-09T19:40:08.539Z,101827.94
2024-05-09T19:45:17.473Z,101827.41
2024-05-09T19:50:26.789Z,101836.03
2024-05-09T19:55:40.266Z,101831.13
2024-05-09T20:00:43.834Z,101834.78
2024-05-09T20:05:47.433Z,101837.25
2024-05-09T20:10:49.475Z,101834.56
2024-05-09T20:15:51.477Z,101832.91
2024-05-09T20:20:54.114Z,101833.16
2024-05-09T20:25:56.043Z,101840.69
2024-05-09T20:30:58.092Z,101840.19
2024-05-09T20:36:04.154Z,101839.13
2024-05-09T20:41:05.741Z,101845.66
2024-05-09T20:46:07.360Z,101834.03
2024-05-09T20:51:10.265Z,101841.63
2024-05-09T20:56:21.434Z,101840.41
2024-05-09T21:01:23.310Z,101837.78
2024-05-09T21:06:24.944Z,101844.56
2024-05-09T21:11:26.502Z,101836.78
2024-05-09T21:16:28.341Z,101837.69
2024-05-09T21:21:30.146Z,101836.78
2024-05-09T21:26:32.163Z,101842.06
2024-05-09T21:31:34.206Z,101836.97
2024-05-09T21:36:35.929Z,101843.47
2024-05-09T21:41:37.557Z,101835.34
2024-05-09T21:46:39.232Z,101835.81
2024-05-09T21:51:40.871Z,101825.19
2024-05-09T21:56:42.556Z,101825.25
2024-05-09T22:01:46.566Z,101839.19
2024-05-09T22:06:51.680Z,101830.09
2024-05-09T22:11:54.494Z,101821.56
2024-05-09T22:16:59.358Z,101830.34
2024-05-09T22:22:01.243Z,101827.63
2024-05-09T22:27:03.414Z,101833.75
2024-05-09T22:32:05.786Z,101833.81
2024-05-09T22:37:08.234Z,101835.59
2024-05-09T22:42:10.008Z,101836.94
2024-05-09T22:47:14.234Z,101850.19
2024-05-09T22:52:16.480Z,101843.66
2024-05-09T22:57:21.428Z,101842.06
2024-05-09T23:02:23.297Z,101836.72
2024-05-09T23:07:26.083Z,101835.09
2024-05-09T23:12:32.149Z,101840.25
2024-05-09T23:17:34.090Z,101836.16
2024-05-09T23:22:37.287Z,101835.13
2024-05-09T23:27:40.360Z,101826.44
2024-05-09T23:32:42.322Z,101824.59
2024-05-09T23:37:46.489Z,101819.03
2024-05-09T23:42:51.263Z,101809.97
2024-05-09T23:47:53.505Z,101811.59
2024-05-09T23:52:55.267Z,101808.31
2024-05-09T23:57:57.393Z,101806.84
